sensor_id;sensor_type;location;lat;lon;timestamp;pressure;altitude;pressure_sealevel;temperature;humidity
27429;BME280;14881;48.092;11.574;2023-05-23T00:01:28;95151.13;;;14.95;100.00
27429;BME280;14881;48.092;11.574;2023-05-23T00:03:56;95155.34;;;14.84;100.00
27429;BME280;14881;48.092;11.574;2023-05-23T00:06:23;95151.66;;;14.89;100.00
27429;BME280;14881;48.092;11.574;2023-05-23T00:08:49;95149.06;;;14.84;100.00
27429;BME280;14881;48.092;11.574;2023-05-23T00:11:16;95149.38;;;14.91;100.00
27429;BME280;14881;48.092;11.574;2023-05-23T00:13:44;95156.31;;;14.88;100.00
27429;BME280;14881;48.092;11.574;2023-05-23T00:16:10;95159.22;;;14.83;100.00
27429;BME280;14881;48.092;11.574;2023-05-23T00:18:37;95161.16;;;14.83;100.00
27429;BME280;14881;48.092;11.574;2023-05-23T00:21:05;95161.16;;;14.83;100.00
27429;BME280;14881;48.092;11.574;2023-05-23T00:23:31;95162.09;;;14.78;100.00
27429;BME280;14881;48.092;11.574;2023-05-23T00:25:58;95156.81;;;14.82;100.00
27429;BME280;14881;48.092;11.574;2023-05-23T00:28:25;95155.84;;;14.78;100.00
27429;BME280;14881;48.092;11.574;2023-05-23T00:30:51;95159.53;;;14.73;100.00
27429;BME280;14881;48.092;11.574;2023-05-23T00:33:18;95160.50;;;14.77;100.00
27429;BME280;14881;48.092;11.574;2023-05-23T00:35:46;95156.47;;;14.75;100.00
27429;BME280;14881;48.092;11.574;2023-05-23T00:38:13;95160.81;;;14.76;100.00
27429;BME280;14881;48.092;11.574;2023-05-23T00:40:40;95162.09;;;14.78;100.00
27429;BME280;14881;48.092;11.574;2023-05-23T00:43:06;95159.69;;;14.77;100.00
27429;BME280;14881;48.092;11.574;2023-05-23T00:45:33;95161.47;;;14.81;100.00
27429;BME280;14881;48.092;11.574;2023-05-23T00:48:00;95162.28;;;14.82;100.00
27429;BME280;14881;48.092;11.574;2023-05-23T00:50:28;95156.63;;;14.78;100.00
27429;BME280;14881;48.092;11.574;2023-05-23T00:52:55;95156.81;;;14.82;100.00
27429;BME280;14881;48.092;11.574;2023-05-23T00:55:23;95160.50;;;14.86;100.00
27429;BME280;14881;48.092;11.574;2023-05-23T00:57:50;95163.84;;;14.91;100.00
27429;BME280;14881;48.092;11.574;2023-05-23T01:00:19;95163.03;;;14.91;100.00
27429;BME280;14881;48.092;11.574;2023-05-23T01:02:47;95156.28;;;14.97;100.00
27429;BME280;14881;48.092;11.574;2023-05-23T01:05:16;95156.44;;;15.01;100.00
27429;BME280;14881;48.092;11.574;2023-05-23T01:07:43;95162.06;;;15.04;100.00
27429;BME280;14881;48.092;11.574;2023-05-23T01:10:10;95149.78;;;15.10;100.00
27429;BME280;14881;48.092;11.574;2023-05-23T01:12:42;95156.06;;;15.11;100.00
27429;BME280;14881;48.092;11.574;2023-05-23T01:15:14;95153.34;;;15.11;100.00
27429;BME280;14881;48.092;11.574;2023-05-23T01:17:47;95160.59;;;15.07;100.00
27429;BME280;14881;48.092;11.574;2023-05-23T01:20:17;95167.22;;;15.06;100.00
27429;BME280;14881;48.092;11.574;2023-05-23T01:23:09;95165.88;;;15.12;100.00
27429;BME280;14881;48.092;11.574;2023-05-23T01:25:47;95167.50;;;15.13;100.00
27429;BME280;14881;48.092;11.574;2023-05-23T01:28:19;95165.72;;;15.08;100.00
27429;BME280;14881;48.092;11.574;2023-05-23T01:30:49;95172.31;;;15.16;100.00
27429;BME280;14881;48.092;11.574;2023-05-23T01:33:18;95170.72;;;15.15;100.00
27429;BME280;14881;48.092;11.574;2023-05-23T01:35:45;95159.28;;;15.21;100.00
27429;BME280;14881;48.092;11.574;2023-05-23T01:38:15;95160.69;;;15.27;100.00
27429;BME280;14881;48.092;11.574;2023-05-23T01:40:41;95159.38;;;15.33;100.00
27429;BME280;14881;48.092;11.574;2023-05-23T01:43:08;95169.69;;;15.28;100.00
27429;BME280;14881;48.092;11.574;2023-05-23T01:45:35;95165.00;;;15.37;100.00
27429;BME280;14881;48.092;11.574;2023-05-23T01:48:03;95164.00;;;15.42;100.00
27429;BME280;14881;48.092;11.574;2023-05-23T01:50:31;95160.63;;;15.45;100.00
27429;BME280;14881;48.092;11.574;2023-05-23T01:52:58;95165.59;;;15.51;100.00
27429;BME280;14881;48.092;11.574;2023-05-23T01:55:25;95171.53;;;15.53;100.00
27429;BME280;14881;48.092;11.574;2023-05-23T01:57:54;95167.50;;;15.59;100.00
27429;BME280;14881;48.092;11.574;2023-05-23T02:00:21;95171.22;;;15.55;100.00
27429;BME280;14881;48.092;11.574;2023-05-23T02:02:48;95173.34;;;15.58;100.00
27429;BME280;14881;48.092;11.574;2023-05-23T02:05:15;95171.19;;;15.63;100.00
27429;BME280;14881;48.092;11.574;2023-05-23T02:07:41;95174.91;;;15.59;100.00
27429;BME280;14881;48.092;11.574;2023-05-23T02:10:08;95186.97;;;15.66;100.00
27429;BME280;14881;48.092;11.574;2023-05-23T02:12:35;95185.75;;;15.55;100.00
27429;BME280;14881;48.092;11.574;2023-05-23T02:15:01;95176.41;;;15.56;100.00
27429;BME280;14881;48.092;11.574;2023-05-23T02:17:28;95178.31;;;15.47;100.00
27429;BME280;14881;48.092;11.574;2023-05-23T02:19:56;95182.69;;;15.48;100.00
27429;BME280;14881;48.092;11.574;2023-05-23T02:22:22;95186.69;;;15.51;100.00
27429;BME280;14881;48.092;11.574;2023-05-23T02:24:49;95194.75;;;15.47;100.00
27429;BME280;14881;48.092;11.574;2023-05-23T02:27:16;95202.38;;;15.33;100.00
27429;BME280;14881;48.092;11.574;2023-05-23T02:29:42;95199.78;;;15.37;100.00
27429;BME280;14881;48.092;11.574;2023-05-23T02:32:11;95202.06;;;15.35;100.00
27429;BME280;14881;48.092;11.574;2023-05-23T02:34:40;95200.28;;;15.30;100.00
27429;BME280;14881;48.092;11.574;2023-05-23T02:37:12;95198.84;;;15.24;100.00
27429;BME280;14881;48.092;11.574;2023-05-23T02:39:39;95200.00;;;15.23;100.00
27429;BME280;14881;48.092;11.574;2023-05-23T02:42:05;95200.81;;;15.15;100.00
27429;BME280;14881;48.092;11.574;2023-05-23T02:44:32;95202.59;;;15.11;100.00
27429;BME280;14881;48.092;11.574;2023-05-23T02:46:58;95207.44;;;15.05;100.00
27429;BME280;14881;48.092;11.574;2023-05-23T02:49:25;95215.97;;;15.04;100.00
27429;BME280;14881;48.092;11.574;2023-05-23T02:51:51;95217.28;;;14.97;100.00
27429;BME280;14881;48.092;11.574;2023-05-23T02:54:18;95215.03;;;14.91;100.00
27429;BME280;14881;48.092;11.574;2023-05-23T02:56:45;95223.09;;;14.79;100.00
27429;BME280;14881;48.092;11.574;2023-05-23T02:59:11;95221.97;;;14.80;100.00
27429;BME280;14881;48.092;11.574;2023-05-23T03:01:38;95219.72;;;14.82;100.00
27429;BME280;14881;48.092;11.574;2023-05-23T03:04:04;95218.91;;;14.81;100.00
27429;BME280;14881;48.092;11.574;2023-05-23T03:06:31;95209.25;;;14.75;100.00
27429;BME280;14881;48.092;11.574;2023-05-23T03:08:59;95209.88;;;14.72;100.00
27429;BME280;14881;48.092;11.574;2023-05-23T03:11:26;95216.84;;;14.70;100.00
27429;BME280;14881;48.092;11.574;2023-05-23T03:13:54;95213.44;;;14.64;100.00
27429;BME280;14881;48.092;11.574;2023-05-23T03:16:21;95212.66;;;14.63;100.00
27429;BME280;14881;48.092;11.574;2023-05-23T03:18:47;95230.81;;;14.59;100.00
27429;BME280;14881;48.092;11.574;2023-05-23T03:21:14;95223.56;;;14.55;100.00
27429;BME280;14881;48.092;11.574;2023-05-23T03:23:40;95221.00;;;14.58;100.00
27429;BME280;14881;48.092;11.574;2023-05-23T03:26:06;95220.50;;;14.56;100.00
27429;BME280;14881;48.092;11.574;2023-05-23T03:28:33;95219.56;;;14.61;100.00
27429;BME280;14881;48.092;11.574;2023-05-23T03:31:00;95224.22;;;14.60;100.00
27429;BME280;14881;48.092;11.574;2023-05-23T03:33:26;95219.72;;;14.56;100.00
27429;BME280;14881;48.092;11.574;2023-05-23T03:35:53;95222.13;;;14.57;100.00
27429;BME280;14881;48.092;11.574;2023-05-23T03:38:19;95224.03;;;14.57;100.00
27429;BME280;14881;48.092;11.574;2023-05-23T03:40:46;95222.78;;;14.63;100.00
27429;BME280;14881;48.092;11.574;2023-05-23T03:43:13;95227.59;;;14.57;100.00
27429;BME280;14881;48.092;11.574;2023-05-23T03:45:40;95227.09;;;14.55;100.00
27429;BME280;14881;48.092;11.574;2023-05-23T03:48:07;95236.28;;;14.59;100.00
27429;BME280;14881;48.092;11.574;2023-05-23T03:50:33;95229.69;;;14.69;100.00
27429;BME280;14881;48.092;11.574;2023-05-23T03:52:59;95229.50;;;14.74;100.00
27429;BME280;14881;48.092;11.574;2023-05-23T03:55:30;95234.03;;;14.79;100.00
27429;BME280;14881;48.092;11.574;2023-05-23T03:57:57;95234.03;;;14.87;100.00
27429;BME280;14881;48.092;11.574;2023-05-23T04:00:23;95236.59;;;14.92;100.00
27429;BME280;14881;48.092;11.574;2023-05-23T04:02:50;95237.91;;;14.86;100.00
27429;BME280;14881;48.092;11.574;2023-05-23T04:05:18;95237.88;;;14.95;100.00
27429;BME280;14881;48.092;11.574;2023-05-23T04:07:45;95229.66;;;14.95;100.00
27429;BME280;14881;48.092;11.574;2023-05-23T04:10:11;95229.81;;;14.98;100.00
27429;BME280;14881;48.092;11.574;2023-05-23T04:12:37;95232.25;;;15.00;100.00
27429;BME280;14881;48.092;11.574;2023-05-23T04:15:07;95250.59;;;15.00;100.00
27429;BME280;14881;48.092;11.574;2023-05-23T04:17:34;95235.94;;;15.04;100.00
27429;BME280;14881;48.092;11.574;2023-05-23T04:20:01;95236.41;;;15.15;100.00
27429;BME280;14881;48.092;11.574;2023-05-23T04:22:27;95237.34;;;15.19;100.00
27429;BME280;14881;48.092;11.574;2023-05-23T04:24:53;95242.50;;;15.20;100.00
27429;BME280;14881;48.092;11.574;2023-05-23T04:27:20;95248.13;;;15.24;100.00
27429;BME280;14881;48.092;11.574;2023-05-23T04:29:47;95248.44;;;15.31;100.00
27429;BME280;14881;48.092;11.574;2023-05-23T04:32:13;95245.84;;;15.35;100.00
27429;BME280;14881;48.092;11.574;2023-05-23T04:34:41;95263.56;;;15.37;100.00
27429;BME280;14881;48.092;11.574;2023-05-23T04:37:09;95262.13;;;15.40;100.00
27429;BME280;14881;48.092;11.574;2023-05-23T04:39:36;95268.25;;;15.37;100.00
27429;BME280;14881;48.092;11.574;2023-05-23T04:42:03;95271.47;;;15.39;100.00
27429;BME280;14881;48.092;11.574;2023-05-23T04:44:32;95273.88;;;15.40;100.00
27429;BME280;14881;48.092;11.574;2023-05-23T04:46:58;95275.63;;;15.45;100.00
27429;BME280;14881;48.092;11.574;2023-05-23T04:49:27;95267.41;;;15.45;100.00
27429;BME280;14881;48.092;11.574;2023-05-23T04:51:54;95264.97;;;15.52;100.00
27429;BME280;14881;48.092;11.574;2023-05-23T04:54:21;95267.06;;;15.55;100.00
27429;BME280;14881;48.092;11.574;2023-05-23T04:56:50;95265.28;;;15.59;100.00
27429;BME280;14881;48.092;11.574;2023-05-23T04:59:16;95262.22;;;15.60;100.00
27429;BME280;14881;48.092;11.574;2023-05-23T05:01:43;95257.56;;;15.61;100.00
27429;BME280;14881;48.092;11.574;2023-05-23T05:04:11;95269.63;;;15.60;100.00
27429;BME280;14881;48.092;11.574;2023-05-23T05:06:39;95255.44;;;15.66;100.00
27429;BME280;14881;48.092;11.574;2023-05-23T05:09:09;95271.88;;;15.75;100.00
27429;BME280;14881;48.092;11.574;2023-05-23T05:11:36;95268.28;;;15.83;100.00
27429;BME280;14881;48.092;11.574;2023-05-23T05:14:02;95265.53;;;15.83;100.00
27429;BME280;14881;48.092;11.574;2023-05-23T05:16:28;95261.28;;;15.94;100.00
27429;BME280;14881;48.092;11.574;2023-05-23T05:18:56;95262.88;;;16.04;100.00
27429;BME280;14881;48.092;11.574;2023-05-23T05:21:23;95267.69;;;16.07;100.00
27429;BME280;14881;48.092;11.574;2023-05-23T05:23:49;95266.84;;;16.15;100.00
27429;BME280;14881;48.092;11.574;2023-05-23T05:26:17;95260.50;;;16.23;100.00
27429;BME280;14881;48.092;11.574;2023-05-23T05:28:44;95263.03;;;16.28;100.00
27429;BME280;14881;48.092;11.574;2023-05-23T05:31:10;95248.41;;;16.45;100.00
27429;BME280;14881;48.092;11.574;2023-05-23T05:33:40;95247.56;;;16.53;100.00
27429;BME280;14881;48.092;11.574;2023-05-23T05:36:06;95241.22;;;16.61;100.00
27429;BME280;14881;48.092;11.574;2023-05-23T05:38:33;95240.91;;;16.63;100.00
27429;BME280;14881;48.092;11.574;2023-05-23T05:40:59;95247.13;;;16.72;100.00
27429;BME280;14881;48.092;11.574;2023-05-23T05:43:25;95243.50;;;16.80;100.00
27429;BME280;14881;48.092;11.574;2023-05-23T05:45:52;95244.72;;;16.91;100.00
27429;BME280;14881;48.092;11.574;2023-05-23T05:48:19;95241.88;;;17.00;100.00
27429;BME280;14881;48.092;11.574;2023-05-23T05:50:45;95249.13;;;17.04;100.00
27429;BME280;14881;48.092;11.574;2023-05-23T05:53:12;95246.75;;;17.15;100.00
27429;BME280;14881;48.092;11.574;2023-05-23T05:55:39;95246.06;;;17.18;100.00
27429;BME280;14881;48.092;11.574;2023-05-23T05:58:05;95241.78;;;17.29;100.00
27429;BME280;14881;48.092;11.574;2023-05-23T06:00:34;95243.22;;;17.60;100.00
27429;BME280;14881;48.092;11.574;2023-05-23T06:03:10;95257.94;;;17.76;100.00
27429;BME280;14881;48.092;11.574;2023-05-23T06:05:37;95251.53;;;17.84;100.00
27429;BME280;14881;48.092;11.574;2023-05-23T06:08:04;95260.94;;;18.07;100.00
27429;BME280;14881;48.092;11.574;2023-05-23T06:10:31;95255.69;;;18.15;100.00
27429;BME280;14881;48.092;11.574;2023-05-23T06:12:57;95261.88;;;17.99;100.00
27429;BME280;14881;48.092;11.574;2023-05-23T06:15:24;95260.25;;;17.86;100.00
27429;BME280;14881;48.092;11.574;2023-05-23T06:17:51;95264.25;;;17.89;100.00
27429;BME280;14881;48.092;11.574;2023-05-23T06:20:18;95259.34;;;17.94;100.00
27429;BME280;14881;48.092;11.574;2023-05-23T06:22:44;95258.06;;;18.04;100.00
27429;BME280;14881;48.092;11.574;2023-05-23T06:25:10;95256.03;;;18.13;100.00
27429;BME280;14881;48.092;11.574;2023-05-23T06:27:37;95258.19;;;18.20;100.00
27429;BME280;14881;48.092;11.574;2023-05-23T06:30:04;95254.41;;;18.24;100.00
27429;BME280;14881;48.092;11.574;2023-05-23T06:32:31;95260.16;;;18.31;100.00
27429;BME280;14881;48.092;11.574;2023-05-23T06:34:57;95267.59;;;18.31;100.00
27429;BME280;14881;48.092;11.574;2023-05-23T06:37:24;95259.81;;;18.33;100.00
27429;BME280;14881;48.092;11.574;2023-05-23T06:39:51;95257.28;;;18.40;100.00
27429;BME280;14881;48.092;11.574;2023-05-23T06:42:17;95250.38;;;18.58;100.00
27429;BME280;14881;48.092;11.574;2023-05-23T06:44:44;95257.25;;;18.76;100.00
27429;BME280;14881;48.092;11.574;2023-05-23T06:47:10;95262.72;;;18.89;100.00
27429;BME280;14881;48.092;11.574;2023-05-23T06:49:36;95262.28;;;18.74;100.00
27429;BME280;14881;48.092;11.574;2023-05-23T06:52:03;95261.88;;;18.60;100.00
27429;BME280;14881;48.092;11.574;2023-05-23T06:54:31;95263.47;;;18.49;100.00
27429;BME280;14881;48.092;11.574;2023-05-23T06:56:57;95262.78;;;18.28;100.00
27429;BME280;14881;48.092;11.574;2023-05-23T06:59:24;95271.81;;;18.40;100.00
27429;BME280;14881;48.092;11.574;2023-05-23T07:01:50;95278.22;;;18.57;100.00
27429;BME280;14881;48.092;11.574;2023-05-23T07:04:17;95275.03;;;18.55;100.00
27429;BME280;14881;48.092;11.574;2023-05-23T07:06:43;95280.75;;;18.74;100.00
27429;BME280;14881;48.092;11.574;2023-05-23T07:09:13;95272.91;;;18.88;100.00
27429;BME280;14881;48.092;11.574;2023-05-23T07:11:43;95267.69;;;19.11;100.00
27429;BME280;14881;48.092;11.574;2023-05-23T07:14:09;95269.75;;;19.14;100.00
27429;BME280;14881;48.092;11.574;2023-05-23T07:16:39;95277.66;;;19.43;100.00
27429;BME280;14881;48.092;11.574;2023-05-23T07:19:08;95277.94;;;19.66;100.00
27429;BME280;14881;48.092;11.574;2023-05-23T07:21:34;95267.91;;;19.74;100.00
27429;BME280;14881;48.092;11.574;2023-05-23T07:24:01;95270.59;;;19.86;100.00
27429;BME280;14881;48.092;11.574;2023-05-23T07:26:27;95277.88;;;19.94;100.00
27429;BME280;14881;48.092;11.574;2023-05-23T07:28:57;95278.50;;;19.88;100.00
27429;BME280;14881;48.092;11.574;2023-05-23T07:31:23;95283.91;;;19.68;100.00
27429;BME280;14881;48.092;11.574;2023-05-23T07:33:50;95284.16;;;19.79;100.00
27429;BME280;14881;48.092;11.574;2023-05-23T07:36:20;95283.31;;;19.91;100.00
27429;BME280;14881;48.092;11.574;2023-05-23T07:38:48;95288.91;;;19.94;100.00
27429;BME280;14881;48.092;11.574;2023-05-23T07:41:14;95281.00;;;20.08;100.00
27429;BME280;14881;48.092;11.574;2023-05-23T07:43:41;95276.81;;;20.46;100.00
27429;BME280;14881;48.092;11.574;2023-05-23T07:46:08;95277.16;;;20.60;100.00
27429;BME280;14881;48.092;11.574;2023-05-23T07:48:34;95283.44;;;20.41;100.00
27429;BME280;14881;48.092;11.574;2023-05-23T07:51:01;95285.34;;;20.09;100.00
27429;BME280;14881;48.092;11.574;2023-05-23T07:53:27;95285.19;;;20.02;100.00
27429;BME280;14881;48.092;11.574;2023-05-23T07:55:53;95287.75;;;20.11;100.00
27429;BME280;14881;48.092;11.574;2023-05-23T07:58:20;95287.25;;;20.21;100.00
27429;BME280;14881;48.092;11.574;2023-05-23T08:00:47;95284.84;;;20.04;100.00
27429;BME280;14881;48.092;11.574;2023-05-23T08:03:18;95289.19;;;20.05;100.00
27429;BME280;14881;48.092;11.574;2023-05-23T08:05:45;95285.34;;;20.09;100.00
27429;BME280;14881;48.092;11.574;2023-05-23T08:08:12;95284.94;;;20.23;100.00
27429;BME280;14881;48.092;11.574;2023-05-23T08:10:38;95284.38;;;20.17;100.00
27429;BME280;14881;48.092;11.574;2023-05-23T08:13:05;95288.28;;;20.32;100.00
27429;BME280;14881;48.092;11.574;2023-05-23T08:15:32;95285.09;;;20.30;100.00
27429;BME280;14881;48.092;11.574;2023-05-23T08:17:59;95296.44;;;20.41;100.00
27429;BME280;14881;48.092;11.574;2023-05-23T08:20:26;95294.16;;;20.31;100.00
27429;BME280;14881;48.092;11.574;2023-05-23T08:22:57;95287.84;;;20.46;100.00
27429;BME280;14881;48.092;11.574;2023-05-23T08:25:24;95298.97;;;20.34;100.00
27429;BME280;14881;48.092;11.574;2023-05-23T08:27:55;95302.28;;;20.08;100.00
27429;BME280;14881;48.092;11.574;2023-05-23T08:30:22;95305.97;;;19.84;100.00
27429;BME280;14881;48.092;11.574;2023-05-23T08:32:50;95305.78;;;19.77;100.00
27429;BME280;14881;48.092;11.574;2023-05-23T08:35:17;95318.75;;;19.76;100.00
27429;BME280;14881;48.092;11.574;2023-05-23T08:37:44;95312.19;;;19.81;100.00
27429;BME280;14881;48.092;11.574;2023-05-23T08:40:13;95307.34;;;20.06;100.00
27429;BME280;14881;48.092;11.574;2023-05-23T08:42:42;95307.69;;;20.20;100.00
27429;BME280;14881;48.092;11.574;2023-05-23T08:45:09;95306.09;;;20.03;100.00
27429;BME280;14881;48.092;11.574;2023-05-23T08:47:36;95314.06;;;19.93;100.00
27429;BME280;14881;48.092;11.574;2023-05-23T08:50:05;95328.50;;;19.58;100.00
27429;BME280;14881;48.092;11.574;2023-05-23T08:52:32;95318.31;;;19.46;100.00
27429;BME280;14881;48.092;11.574;2023-05-23T08:55:01;95322.75;;;20.07;100.00
27429;BME280;14881;48.092;11.574;2023-05-23T08:57:27;95313.84;;;20.45;100.00
27429;BME280;14881;48.092;11.574;2023-05-23T08:59:55;95319.13;;;20.50;100.00
27429;BME280;14881;48.092;11.574;2023-05-23T09:02:23;95321.59;;;20.24;100.00
27429;BME280;14881;48.092;11.574;2023-05-23T09:04:50;95320.25;;;20.33;100.00
27429;BME280;14881;48.092;11.574;2023-05-23T09:07:17;95315.72;;;20.25;100.00
27429;BME280;14881;48.092;11.574;2023-05-23T09:09:44;95324.16;;;20.16;100.00
27429;BME280;14881;48.092;11.574;2023-05-23T09:12:13;95320.25;;;20.02;100.00
27429;BME280;14881;48.092;11.574;2023-05-23T09:14:41;95334.31;;;19.69;100.00
27429;BME280;14881;48.092;11.574;2023-05-23T09:17:09;95333.03;;;19.94;100.00
27429;BME280;14881;48.092;11.574;2023-05-23T09:19:39;95332.69;;;20.11;100.00
27429;BME280;14881;48.092;11.574;2023-05-23T09:22:06;95333.38;;;20.52;100.00
27429;BME280;14881;48.092;11.574;2023-05-23T09:24:33;95320.75;;;20.86;100.00
27429;BME280;14881;48.092;11.574;2023-05-23T09:26:59;95325.78;;;21.00;100.00
27429;BME280;14881;48.092;11.574;2023-05-23T09:29:27;95327.53;;;21.24;100.00
27429;BME280;14881;48.092;11.574;2023-05-23T09:31:58;95322.75;;;21.21;100.00
27429;BME280;14881;48.092;11.574;2023-05-23T09:34:25;95325.50;;;21.21;100.00
27429;BME280;14881;48.092;11.574;2023-05-23T09:36:54;95316.44;;;21.39;100.00
27429;BME280;14881;48.092;11.574;2023-05-23T09:39:20;95316.94;;;21.26;100.00
27429;BME280;14881;48.092;11.574;2023-05-23T09:41:47;95314.75;;;21.35;100.00
27429;BME280;14881;48.092;11.574;2023-05-23T09:46:40;95316.97;;;21.10;100.00
27429;BME280;14881;48.092;11.574;2023-05-23T09:49:16;95315.75;;;20.92;100.00
27429;BME280;14881;48.092;11.574;2023-05-23T09:51:43;95318.09;;;21.25;100.00
27429;BME280;14881;48.092;11.574;2023-05-23T09:54:10;95319.38;;;21.31;100.00
27429;BME280;14881;48.092;11.574;2023-05-23T09:56:39;95321.31;;;21.11;100.00
27429;BME280;14881;48.092;11.574;2023-05-23T09:59:11;95319.03;;;20.97;100.00
27429;BME280;14881;48.092;11.574;2023-05-23T10:01:40;95327.25;;;20.43;100.00
27429;BME280;14881;48.092;11.574;2023-05-23T10:04:08;95325.22;;;20.12;100.00
27429;BME280;14881;48.092;11.574;2023-05-23T10:06:40;95331.22;;;19.70;100.00
27429;BME280;14881;48.092;11.574;2023-05-23T10:09:12;95341.16;;;19.75;100.00
27429;BME280;14881;48.092;11.574;2023-05-23T10:14:56;95322.91;;;20.14;100.00
27429;BME280;14881;48.092;11.574;2023-05-23T10:17:29;95321.59;;;20.24;100.00
27429;BME280;14881;48.092;11.574;2023-05-23T10:20:01;95314.13;;;20.24;100.00
27429;BME280;14881;48.092;11.574;2023-05-23T10:22:33;95314.66;;;20.45;100.00
27429;BME280;14881;48.092;11.574;2023-05-23T10:25:01;95315.06;;;20.79;100.00
27429;BME280;14881;48.092;11.574;2023-05-23T10:27:28;95309.22;;;20.65;100.00
27429;BME280;14881;48.092;11.574;2023-05-23T10:29:55;95311.34;;;20.71;100.00
27429;BME280;14881;48.092;11.574;2023-05-23T10:32:22;95306.00;;;20.63;100.00
27429;BME280;14881;48.092;11.574;2023-05-23T10:34:56;95312.00;;;20.49;100.00
27429;BME280;14881;48.092;11.574;2023-05-23T10:37:30;95322.66;;;20.03;100.00
27429;BME280;14881;48.092;11.574;2023-05-23T10:40:04;95320.34;;;19.62;100.00
27429;BME280;14881;48.092;11.574;2023-05-23T10:42:42;95325.94;;;19.65;100.00
27429;BME280;14881;48.092;11.574;2023-05-23T10:45:16;95322.38;;;19.65;100.00
27429;BME280;14881;48.092;11.574;2023-05-23T10:47:42;95320.66;;;19.72;100.00
27429;BME280;14881;48.092;11.574;2023-05-23T10:50:12;95320.81;;;19.79;100.00
27429;BME280;14881;48.092;11.574;2023-05-23T10:52:39;95326.50;;;19.71;100.00
27429;BME280;14881;48.092;11.574;2023-05-23T10:55:14;95334.25;;;19.81;100.00
27429;BME280;14881;48.092;11.574;2023-05-23T10:57:43;95333.28;;;19.73;100.00
27429;BME280;14881;48.092;11.574;2023-05-23T11:00:13;95330.22;;;19.63;100.00
27429;BME280;14881;48.092;11.574;2023-05-23T11:02:46;95333.69;;;19.75;100.00
27429;BME280;14881;48.092;11.574;2023-05-23T11:05:21;95327.16;;;20.39;100.00
27429;BME280;14881;48.092;11.574;2023-05-23T11:08:06;95309.28;;;21.38;100.00
27429;BME280;14881;48.092;11.574;2023-05-23T11:10:54;95302.88;;;22.38;100.00
27429;BME280;14881;48.092;11.574;2023-05-23T11:13:21;95284.94;;;22.51;100.00
27429;BME280;14881;48.092;11.574;2023-05-23T11:15:48;95286.75;;;22.66;100.00
27429;BME280;14881;48.092;11.574;2023-05-23T11:18:22;95284.16;;;23.33;100.00
27429;BME280;14881;48.092;11.574;2023-05-23T11:20:53;95282.81;;;22.94;100.00
27429;BME280;14881;48.092;11.574;2023-05-23T11:23:21;95279.22;;;23.19;100.00
27429;BME280;14881;48.092;11.574;2023-05-23T11:25:49;95271.84;;;23.31;100.00
27429;BME280;14881;48.092;11.574;2023-05-23T11:28:15;95271.38;;;23.55;100.00
27429;BME280;14881;48.092;11.574;2023-05-23T11:30:47;95271.22;;;23.78;100.00
27429;BME280;14881;48.092;11.574;2023-05-23T11:33:14;95265.19;;;24.09;100.00
27429;BME280;14881;48.092;11.574;2023-05-23T11:35:42;95260.31;;;23.58;100.00
27429;BME280;14881;48.092;11.574;2023-05-23T11:38:13;95264.44;;;23.72;100.00
27429;BME280;14881;48.092;11.574;2023-05-23T11:40:41;95264.81;;;24.11;100.00
27429;BME280;14881;48.092;11.574;2023-05-23T11:43:09;95263.03;;;23.88;100.00
27429;BME280;14881;48.092;11.574;2023-05-23T11:45:37;95253.97;;;23.95;100.00
27429;BME280;14881;48.092;11.574;2023-05-23T11:48:05;95255.72;;;24.54;100.00
27429;BME280;14881;48.092;11.574;2023-05-23T11:50:32;95245.56;;;24.76;100.00
27429;BME280;14881;48.092;11.574;2023-05-23T11:52:59;95248.16;;;25.13;100.00
27429;BME280;14881;48.092;11.574;2023-05-23T11:55:26;95241.97;;;25.52;100.00
27429;BME280;14881;48.092;11.574;2023-05-23T11:57:55;95253.28;;;24.49;100.00
27429;BME280;14881;48.092;11.574;2023-05-23T12:00:21;95247.31;;;25.02;100.00
27429;BME280;14881;48.092;11.574;2023-05-23T12:02:47;95252.03;;;24.94;100.00
27429;BME280;14881;48.092;11.574;2023-05-23T12:05:14;95243.97;;;25.55;100.00
27429;BME280;14881;48.092;11.574;2023-05-23T12:07:40;95249.31;;;26.20;100.00
27429;BME280;14881;48.092;11.574;2023-05-23T12:10:08;95248.88;;;25.93;100.00
27429;BME280;14881;48.092;11.574;2023-05-23T12:12:39;95248.72;;;25.44;100.00
27429;BME280;14881;48.092;11.574;2023-05-23T12:15:07;95257.13;;;24.34;100.00
27429;BME280;14881;48.092;11.574;2023-05-23T12:17:35;95260.72;;;23.60;100.00
27429;BME280;14881;48.092;11.574;2023-05-23T12:20:02;95258.44;;;23.06;100.00
27429;BME280;14881;48.092;11.574;2023-05-23T12:22:29;95260.66;;;22.94;100.00
27429;BME280;14881;48.092;11.574;2023-05-23T12:24:56;95259.19;;;23.33;100.00
27429;BME280;14881;48.092;11.574;2023-05-23T12:27:26;95261.56;;;23.65;100.00
27429;BME280;14881;48.092;11.574;2023-05-23T12:30:04;95265.22;;;23.72;100.00
27429;BME280;14881;48.092;11.574;2023-05-23T12:32:31;95269.28;;;23.48;100.00
27429;BME280;14881;48.092;11.574;2023-05-23T12:34:58;95266.94;;;22.90;100.00
27429;BME280;14881;48.092;11.574;2023-05-23T12:37:24;95262.56;;;22.63;100.00
27429;BME280;14881;48.092;11.574;2023-05-23T12:39:51;95265.03;;;22.72;100.00
27429;BME280;14881;48.092;11.574;2023-05-23T12:42:17;95262.19;;;23.21;100.00
27429;BME280;14881;48.092;11.574;2023-05-23T12:44:43;95261.91;;;23.30;100.00
27429;BME280;14881;48.092;11.574;2023-05-23T12:47:11;95257.38;;;23.14;100.00
27429;BME280;14881;48.092;11.574;2023-05-23T12:49:38;95264.34;;;23.05;100.00